sensor_id;sensor_type;location;lat;lon;timestamp;pressure;altitude;pressure_sealevel;temperature;humidity
70488;BME280;57976;48.174;16.370;2023-03-26T00:00:28;98620.71;;;10.05;62.88
70488;BME280;57976;48.174;16.370;2023-03-26T00:02:33;98624.55;;;10.04;62.96
70488;BME280;57976;48.174;16.370;2023-03-26T00:04:38;98626.23;;;10.05;63.07
70488;BME280;57976;48.174;16.370;2023-03-26T00:06:43;98628.85;;;10.05;63.26
70488;BME280;57976;48.174;16.370;2023-03-26T00:08:48;98622.54;;;10.06;63.20
70488;BME280;57976;48.174;16.370;2023-03-26T00:10:53;98625.05;;;10.06;63.31
70488;BME280;57976;48.174;16.370;2023-03-26T00:12:57;98615.09;;;10.06;63.27
70488;BME280;57976;48.174;16.370;2023-03-26T00:15:02;98611.70;;;10.05;62.92
70488;BME280;57976;48.174;16.370;2023-03-26T00:17:07;98613.01;;;10.04;62.91
70488;BME280;57976;48.174;16.370;2023-03-26T00:19:12;98608.02;;;10.05;63.02
70488;BME280;57976;48.174;16.370;2023-03-26T00:21:18;98610.36;;;10.04;63.46
70488;BME280;57976;48.174;16.370;2023-03-26T00:23:25;98610.28;;;10.04;63.04
70488;BME280;57976;48.174;16.370;2023-03-26T00:25:30;98613.45;;;10.05;62.90
70488;BME280;57976;48.174;16.370;2023-03-26T00:27:34;98611.57;;;10.06;63.26
70488;BME280;57976;48.174;16.370;2023-03-26T00:29:39;98606.61;;;10.07;62.97
70488;BME280;57976;48.174;16.370;2023-03-26T00:31:44;98609.55;;;10.07;63.01
70488;BME280;57976;48.174;16.370;2023-03-26T00:33:51;98615.66;;;10.08;63.26
70488;BME280;57976;48.174;16.370;2023-03-26T00:35:57;98606.97;;;10.10;62.70
70488;BME280;57976;48.174;16.370;2023-03-26T00:38:02;98618.11;;;10.12;62.54
70488;BME280;57976;48.174;16.370;2023-03-26T00:40:11;98610.40;;;10.14;62.48
70488;BME280;57976;48.174;16.370;2023-03-26T00:42:16;98610.80;;;10.16;62.75
70488;BME280;57976;48.174;16.370;2023-03-26T00:44:21;98606.90;;;10.16;62.72
70488;BME280;57976;48.174;16.370;2023-03-26T00:46:28;98607.77;;;10.17;62.40
70488;BME280;57976;48.174;16.370;2023-03-26T00:48:33;98607.08;;;10.15;62.30
70488;BME280;57976;48.174;16.370;2023-03-26T00:50:49;98600.34;;;10.16;62.86
70488;BME280;57976;48.174;16.370;2023-03-26T00:52:54;98603.66;;;10.18;62.46
70488;BME280;57976;48.174;16.370;2023-03-26T00:54:59;98596.77;;;10.19;62.46
70488;BME280;57976;48.174;16.370;2023-03-26T00:57:04;98600.66;;;10.20;62.43
70488;BME280;57976;48.174;16.370;2023-03-26T00:59:08;98594.30;;;10.23;62.23
70488;BME280;57976;48.174;16.370;2023-03-26T01:01:15;98602.25;;;10.25;62.29
70488;BME280;57976;48.174;16.370;2023-03-26T01:03:21;98592.66;;;10.26;62.28
70488;BME280;57976;48.174;16.370;2023-03-26T01:05:46;98593.46;;;10.30;62.10
70488;BME280;57976;48.174;16.370;2023-03-26T01:07:51;98593.92;;;10.33;61.83
70488;BME280;57976;48.174;16.370;2023-03-26T01:09:58;98591.38;;;10.33;61.77
70488;BME280;57976;48.174;16.370;2023-03-26T01:12:06;98592.38;;;10.36;61.95
70488;BME280;57976;48.174;16.370;2023-03-26T01:14:16;98587.04;;;10.37;61.69
70488;BME280;57976;48.174;16.370;2023-03-26T01:16:26;98585.31;;;10.38;61.80
70488;BME280;57976;48.174;16.370;2023-03-26T01:18:32;98578.41;;;10.41;61.78
70488;BME280;57976;48.174;16.370;2023-03-26T01:20:40;98583.61;;;10.40;61.63
70488;BME280;57976;48.174;16.370;2023-03-26T01:22:49;98574.14;;;10.42;61.49
70488;BME280;57976;48.174;16.370;2023-03-26T01:24:55;98570.24;;;10.43;61.23
70488;BME280;57976;48.174;16.370;2023-03-26T01:27:14;98569.83;;;10.45;61.45
70488;BME280;57976;48.174;16.370;2023-03-26T01:29:28;98564.73;;;10.46;61.76
70488;BME280;57976;48.174;16.370;2023-03-26T01:31:38;98560.98;;;10.47;61.64
70488;BME280;57976;48.174;16.370;2023-03-26T01:33:50;98559.94;;;10.46;61.49
70488;BME280;57976;48.174;16.370;2023-03-26T01:36:02;98563.54;;;10.46;61.36
70488;BME280;57976;48.174;16.370;2023-03-26T01:38:17;98562.92;;;10.46;61.61
70488;BME280;57976;48.174;16.370;2023-03-26T01:40:30;98558.58;;;10.47;61.18
70488;BME280;57976;48.174;16.370;2023-03-26T01:42:42;98557.16;;;10.47;61.65
70488;BME280;57976;48.174;16.370;2023-03-26T01:44:54;98552.83;;;10.47;61.21
70488;BME280;57976;48.174;16.370;2023-03-26T01:47:01;98564.95;;;10.48;61.45
70488;BME280;57976;48.174;16.370;2023-03-26T01:49:06;98557.75;;;10.51;61.29
70488;BME280;57976;48.174;16.370;2023-03-26T01:51:12;98547.23;;;10.54;61.39
70488;BME280;57976;48.174;16.370;2023-03-26T01:53:17;98543.46;;;10.55;61.34
70488;BME280;57976;48.174;16.370;2023-03-26T01:55:23;98553.91;;;10.58;61.46
70488;BME280;57976;48.174;16.370;2023-03-26T01:57:35;98554.92;;;10.61;61.20
70488;BME280;57976;48.174;16.370;2023-03-26T01:59:53;98559.31;;;10.63;61.17
70488;BME280;57976;48.174;16.370;2023-03-26T02:02:08;98562.00;;;10.66;61.01
70488;BME280;57976;48.174;16.370;2023-03-26T02:04:21;98563.79;;;10.68;60.91
70488;BME280;57976;48.174;16.370;2023-03-26T02:06:31;98567.98;;;10.71;60.63
70488;BME280;57976;48.174;16.370;2023-03-26T02:08:41;98566.36;;;10.72;60.88
70488;BME280;57976;48.174;16.370;2023-03-26T02:10:51;98580.95;;;10.75;60.85
70488;BME280;57976;48.174;16.370;2023-03-26T02:12:59;98579.86;;;10.78;60.77
70488;BME280;57976;48.174;16.370;2023-03-26T02:15:06;98574.89;;;10.79;60.66
70488;BME280;57976;48.174;16.370;2023-03-26T02:17:11;98559.88;;;10.78;60.86
70488;BME280;57976;48.174;16.370;2023-03-26T02:19:15;98570.69;;;10.78;60.74
70488;BME280;57976;48.174;16.370;2023-03-26T02:21:22;98565.66;;;10.76;60.72
70488;BME280;57976;48.174;16.370;2023-03-26T02:23:30;98551.65;;;10.72;61.11
70488;BME280;57976;48.174;16.370;2023-03-26T02:25:35;98568.48;;;10.70;61.23
70488;BME280;57976;48.174;16.370;2023-03-26T02:27:40;98569.48;;;10.68;61.75
70488;BME280;57976;48.174;16.370;2023-03-26T02:29:46;98559.23;;;10.64;62.02
70488;BME280;57976;48.174;16.370;2023-03-26T02:31:52;98557.83;;;10.61;62.29
70488;BME280;57976;48.174;16.370;2023-03-26T02:33:56;98555.39;;;10.58;62.00
70488;BME280;57976;48.174;16.370;2023-03-26T02:36:02;98563.66;;;10.55;62.44
70488;BME280;57976;48.174;16.370;2023-03-26T02:38:07;98550.84;;;10.54;62.44
70488;BME280;57976;48.174;16.370;2023-03-26T02:40:12;98554.19;;;10.51;62.79
70488;BME280;57976;48.174;16.370;2023-03-26T02:42:18;98549.63;;;10.48;62.85
70488;BME280;57976;48.174;16.370;2023-03-26T02:44:24;98557.80;;;10.46;63.11
70488;BME280;57976;48.174;16.370;2023-03-26T02:46:50;98562.27;;;10.46;63.23
70488;BME280;57976;48.174;16.370;2023-03-26T02:49:15;98556.02;;;10.45;63.06
70488;BME280;57976;48.174;16.370;2023-03-26T02:51:20;98556.98;;;10.42;63.44
70488;BME280;57976;48.174;16.370;2023-03-26T02:53:38;98553.31;;;10.44;63.53
70488;BME280;57976;48.174;16.370;2023-03-26T02:56:06;98552.29;;;10.43;63.73
70488;BME280;57976;48.174;16.370;2023-03-26T02:58:15;98546.83;;;10.42;63.25
70488;BME280;57976;48.174;16.370;2023-03-26T03:00:20;98548.62;;;10.42;63.43
70488;BME280;57976;48.174;16.370;2023-03-26T03:02:31;98553.75;;;10.41;63.39
70488;BME280;57976;48.174;16.370;2023-03-26T03:04:45;98558.86;;;10.38;63.47
70488;BME280;57976;48.174;16.370;2023-03-26T03:06:49;98551.77;;;10.38;63.51
70488;BME280;57976;48.174;16.370;2023-03-26T03:08:54;98543.67;;;10.38;63.60
70488;BME280;57976;48.174;16.370;2023-03-26T03:11:19;98543.19;;;10.36;63.19
70488;BME280;57976;48.174;16.370;2023-03-26T03:13:26;98555.75;;;10.36;63.38
70488;BME280;57976;48.174;16.370;2023-03-26T03:15:31;98545.70;;;10.38;63.28
70488;BME280;57976;48.174;16.370;2023-03-26T03:17:36;98554.77;;;10.41;63.79
70488;BME280;57976;48.174;16.370;2023-03-26T03:19:41;98539.20;;;10.42;63.26
70488;BME280;57976;48.174;16.370;2023-03-26T03:21:46;98541.42;;;10.41;63.64
70488;BME280;57976;48.174;16.370;2023-03-26T03:23:51;98542.94;;;10.40;63.61
70488;BME280;57976;48.174;16.370;2023-03-26T03:25:57;98543.24;;;10.40;63.52
70488;BME280;57976;48.174;16.370;2023-03-26T03:28:02;98548.45;;;10.38;64.04
70488;BME280;57976;48.174;16.370;2023-03-26T03:30:11;98554.04;;;10.37;64.09
70488;BME280;57976;48.174;16.370;2023-03-26T03:32:38;98551.41;;;10.37;64.11
70488;BME280;57976;48.174;16.370;2023-03-26T03:34:43;98553.55;;;10.37;64.06
70488;BME280;57976;48.174;16.370;2023-03-26T03:36:48;98542.95;;;10.37;63.98
70488;BME280;57976;48.174;16.370;2023-03-26T03:39:06;98538.17;;;10.36;64.12
70488;BME280;57976;48.174;16.370;2023-03-26T03:41:11;98536.15;;;10.36;64.22
70488;BME280;57976;48.174;16.370;2023-03-26T03:43:18;98537.52;;;10.34;64.17
70488;BME280;57976;48.174;16.370;2023-03-26T03:45:33;98540.98;;;10.35;64.35
70488;BME280;57976;48.174;16.370;2023-03-26T03:47:45;98536.34;;;10.37;64.12
70488;BME280;57976;48.174;16.370;2023-03-26T03:49:50;98537.61;;;10.37;64.24
70488;BME280;57976;48.174;16.370;2023-03-26T03:51:55;98544.73;;;10.38;63.98
70488;BME280;57976;48.174;16.370;2023-03-26T03:54:05;98539.08;;;10.38;64.05
70488;BME280;57976;48.174;16.370;2023-03-26T03:56:30;98539.85;;;10.39;63.94
70488;BME280;57976;48.174;16.370;2023-03-26T03:58:58;98543.54;;;10.37;64.32
70488;BME280;57976;48.174;16.370;2023-03-26T04:01:09;98550.20;;;10.39;63.85
70488;BME280;57976;48.174;16.370;2023-03-26T04:03:21;98553.33;;;10.38;63.88
70488;BME280;57976;48.174;16.370;2023-03-26T04:05:39;98554.38;;;10.40;63.83
70488;BME280;57976;48.174;16.370;2023-03-26T04:07:44;98553.73;;;10.42;63.56
70488;BME280;57976;48.174;16.370;2023-03-26T04:10:04;98556.48;;;10.41;63.57
70488;BME280;57976;48.174;16.370;2023-03-26T04:12:28;98555.53;;;10.43;63.48
70488;BME280;57976;48.174;16.370;2023-03-26T04:14:40;98552.40;;;10.45;63.11
70488;BME280;57976;48.174;16.370;2023-03-26T04:16:49;98556.33;;;10.46;63.40
70488;BME280;57976;48.174;16.370;2023-03-26T04:18:54;98558.17;;;10.47;62.85
70488;BME280;57976;48.174;16.370;2023-03-26T04:20:59;98554.70;;;10.49;62.54
70488;BME280;57976;48.174;16.370;2023-03-26T04:23:04;98548.85;;;10.49;62.78
70488;BME280;57976;48.174;16.370;2023-03-26T04:25:10;98557.48;;;10.49;62.56
70488;BME280;57976;48.174;16.370;2023-03-26T04:27:31;98559.69;;;10.50;62.61
70488;BME280;57976;48.174;16.370;2023-03-26T04:29:54;98562.91;;;10.51;62.67
70488;BME280;57976;48.174;16.370;2023-03-26T04:32:02;98559.71;;;10.48;62.84
70488;BME280;57976;48.174;16.370;2023-03-26T04:34:08;98572.59;;;10.50;62.11
70488;BME280;57976;48.174;16.370;2023-03-26T04:36:27;98568.17;;;10.50;62.64
70488;BME280;57976;48.174;16.370;2023-03-26T04:38:36;98568.30;;;10.49;62.40
70488;BME280;57976;48.174;16.370;2023-03-26T04:40:43;98575.27;;;10.49;62.41
70488;BME280;57976;48.174;16.370;2023-03-26T04:42:54;98573.29;;;10.50;62.55
70488;BME280;57976;48.174;16.370;2023-03-26T04:45:09;98576.36;;;10.50;62.01
70488;BME280;57976;48.174;16.370;2023-03-26T04:47:17;98580.30;;;10.50;62.48
70488;BME280;57976;48.174;16.370;2023-03-26T04:49:22;98574.43;;;10.50;62.16
70488;BME280;57976;48.174;16.370;2023-03-26T04:51:32;98574.89;;;10.50;61.96
70488;BME280;57976;48.174;16.370;2023-03-26T04:53:39;98583.10;;;10.52;62.16
70488;BME280;57976;48.174;16.370;2023-03-26T04:56:28;98585.08;;;10.52;62.09
70488;BME280;57976;48.174;16.370;2023-03-26T04:58:49;98580.19;;;10.54;61.77
70488;BME280;57976;48.174;16.370;2023-03-26T05:00:54;98579.71;;;10.55;61.90
70488;BME280;57976;48.174;16.370;2023-03-26T05:02:59;98576.60;;;10.56;61.49
70488;BME280;57976;48.174;16.370;2023-03-26T05:05:04;98578.36;;;10.57;61.43
70488;BME280;57976;48.174;16.370;2023-03-26T05:07:18;98583.16;;;10.59;61.63
70488;BME280;57976;48.174;16.370;2023-03-26T05:09:26;98586.92;;;10.60;61.46
70488;BME280;57976;48.174;16.370;2023-03-26T05:11:56;98584.88;;;10.60;61.02
70488;BME280;57976;48.174;16.370;2023-03-26T05:14:01;98587.90;;;10.61;61.27
70488;BME280;57976;48.174;16.370;2023-03-26T05:16:07;98589.53;;;10.62;60.85
70488;BME280;57976;48.174;16.370;2023-03-26T05:18:16;98588.80;;;10.62;60.99
70488;BME280;57976;48.174;16.370;2023-03-26T05:20:26;98590.76;;;10.63;61.19
70488;BME280;57976;48.174;16.370;2023-03-26T05:22:31;98595.68;;;10.66;61.08
70488;BME280;57976;48.174;16.370;2023-03-26T05:24:58;98596.49;;;10.68;60.81
70488;BME280;57976;48.174;16.370;2023-03-26T05:27:03;98594.80;;;10.68;61.41
70488;BME280;57976;48.174;16.370;2023-03-26T05:29:08;98598.56;;;10.71;61.20
70488;BME280;57976;48.174;16.370;2023-03-26T05:31:20;98591.52;;;10.71;61.50
70488;BME280;57976;48.174;16.370;2023-03-26T05:33:27;98593.38;;;10.72;61.24
70488;BME280;57976;48.174;16.370;2023-03-26T05:35:59;98598.22;;;10.75;60.92
70488;BME280;57976;48.174;16.370;2023-03-26T05:38:05;98589.61;;;10.75;61.18
70488;BME280;57976;48.174;16.370;2023-03-26T05:40:12;98594.69;;;10.76;61.21
70488;BME280;57976;48.174;16.370;2023-03-26T05:42:22;98596.58;;;10.78;61.35
70488;BME280;57976;48.174;16.370;2023-03-26T05:44:45;98590.39;;;10.79;60.96
70488;BME280;57976;48.174;16.370;2023-03-26T05:46:56;98600.95;;;10.80;61.05
70488;BME280;57976;48.174;16.370;2023-03-26T05:49:02;98599.42;;;10.82;61.02
70488;BME280;57976;48.174;16.370;2023-03-26T05:51:27;98597.80;;;10.84;60.82
70488;BME280;57976;48.174;16.370;2023-03-26T05:53:52;98609.69;;;10.89;61.07
70488;BME280;57976;48.174;16.370;2023-03-26T05:56:29;98606.70;;;10.95;61.09
70488;BME280;57976;48.174;16.370;2023-03-26T05:58:35;98611.60;;;10.97;60.79
70488;BME280;57976;48.174;16.370;2023-03-26T06:00:59;98610.83;;;10.96;60.61
70488;BME280;57976;48.174;16.370;2023-03-26T06:03:08;98611.61;;;10.97;60.82
70488;BME280;57976;48.174;16.370;2023-03-26T06:05:33;98613.41;;;10.97;60.44
70488;BME280;57976;48.174;16.370;2023-03-26T06:07:47;98618.76;;;10.95;60.60
70488;BME280;57976;48.174;16.370;2023-03-26T06:09:55;98624.30;;;10.94;60.73
70488;BME280;57976;48.174;16.370;2023-03-26T06:11:59;98628.82;;;10.93;61.10
70488;BME280;57976;48.174;16.370;2023-03-26T06:14:06;98627.46;;;10.94;60.90
70488;BME280;57976;48.174;16.370;2023-03-26T06:16:15;98629.15;;;10.97;61.00
70488;BME280;57976;48.174;16.370;2023-03-26T06:18:34;98641.78;;;11.06;60.91
70488;BME280;57976;48.174;16.370;2023-03-26T06:20:59;98645.92;;;11.10;60.94
70488;BME280;57976;48.174;16.370;2023-03-26T06:23:14;98648.73;;;11.10;60.73
70488;BME280;57976;48.174;16.370;2023-03-26T06:25:41;98645.84;;;11.09;60.83
70488;BME280;57976;48.174;16.370;2023-03-26T06:28:12;98650.19;;;11.14;60.79
70488;BME280;57976;48.174;16.370;2023-03-26T06:30:27;98659.43;;;11.20;60.81
70488;BME280;57976;48.174;16.370;2023-03-26T06:32:44;98652.39;;;11.26;60.55
70488;BME280;57976;48.174;16.370;2023-03-26T06:34:57;98654.85;;;11.37;60.74
70488;BME280;57976;48.174;16.370;2023-03-26T06:37:02;98654.96;;;11.45;60.37
70488;BME280;57976;48.174;16.370;2023-03-26T06:39:07;98652.48;;;11.51;60.13
70488;BME280;57976;48.174;16.370;2023-03-26T06:41:16;98656.16;;;11.52;59.93
70488;BME280;57976;48.174;16.370;2023-03-26T06:43:52;98655.71;;;11.55;60.01
70488;BME280;57976;48.174;16.370;2023-03-26T06:46:18;98658.14;;;11.63;59.90
70488;BME280;57976;48.174;16.370;2023-03-26T06:48:41;98657.96;;;11.72;59.80
70488;BME280;57976;48.174;16.370;2023-03-26T06:51:04;98664.13;;;11.85;59.46
70488;BME280;57976;48.174;16.370;2023-03-26T06:53:29;98661.46;;;11.97;59.27
70488;BME280;57976;48.174;16.370;2023-03-26T06:55:47;98653.85;;;12.03;59.10
70488;BME280;57976;48.174;16.370;2023-03-26T06:58:15;98655.52;;;12.08;58.86
70488;BME280;57976;48.174;16.370;2023-03-26T07:00:37;98652.55;;;12.11;58.63
70488;BME280;57976;48.174;16.370;2023-03-26T07:03:03;98656.17;;;12.16;58.48
70488;BME280;57976;48.174;16.370;2023-03-26T07:05:26;98655.67;;;12.20;58.58
70488;BME280;57976;48.174;16.370;2023-03-26T07:08:06;98649.70;;;12.22;58.27
70488;BME280;57976;48.174;16.370;2023-03-26T07:10:29;98643.54;;;12.21;58.55
70488;BME280;57976;48.174;16.370;2023-03-26T07:13:03;98640.60;;;12.19;58.36
70488;BME280;57976;48.174;16.370;2023-03-26T07:15:30;98634.64;;;12.18;58.30
70488;BME280;57976;48.174;16.370;2023-03-26T07:17:54;98635.41;;;12.21;58.41
70488;BME280;57976;48.174;16.370;2023-03-26T07:20:03;98638.08;;;12.24;57.90
70488;BME280;57976;48.174;16.370;2023-03-26T07:22:14;98637.19;;;12.25;58.08
70488;BME280;57976;48.174;16.370;2023-03-26T07:24:43;98629.66;;;12.28;58.00
70488;BME280;57976;48.174;16.370;2023-03-26T07:27:14;98629.38;;;12.30;57.56
70488;BME280;57976;48.174;16.370;2023-03-26T07:29:26;98626.80;;;12.31;57.50
70488;BME280;57976;48.174;16.370;2023-03-26T07:31:59;98629.70;;;12.33;57.03
70488;BME280;57976;48.174;16.370;2023-03-26T07:34:39;98626.40;;;12.32;56.81
70488;BME280;57976;48.174;16.370;2023-03-26T07:37:21;98623.24;;;12.32;56.75
70488;BME280;57976;48.174;16.370;2023-03-26T07:39:41;98619.07;;;12.36;56.41
70488;BME280;57976;48.174;16.370;2023-03-26T07:42:19;98609.20;;;12.38;56.47
70488;BME280;57976;48.174;16.370;2023-03-26T07:44:53;98607.73;;;12.43;56.59
70488;BME280;57976;48.174;16.370;2023-03-26T07:47:22;98605.56;;;12.52;56.65
70488;BME280;57976;48.174;16.370;2023-03-26T07:49:54;98606.16;;;12.61;56.15
70488;BME280;57976;48.174;16.370;2023-03-26T07:52:23;98603.23;;;12.66;55.75
70488;BME280;57976;48.174;16.370;2023-03-26T07:54:53;98606.85;;;12.72;55.19
70488;BME280;57976;48.174;16.370;2023-03-26T07:57:23;98601.77;;;12.76;55.20
70488;BME280;57976;48.174;16.370;2023-03-26T07:59:58;98597.31;;;12.87;55.12
70488;BME280;57976;48.174;16.370;2023-03-26T08:02:34;98595.35;;;12.98;54.21
70488;BME280;57976;48.174;16.370;2023-03-26T08:05:19;98598.89;;;13.06;53.70
70488;BME280;57976;48.174;16.370;2023-03-26T08:08:05;98590.13;;;13.08;53.59
70488;BME280;57976;48.174;16.370;2023-03-26T08:10:22;98590.28;;;13.13;53.95
70488;BME280;57976;48.174;16.370;2023-03-26T08:12:49;98590.54;;;13.23;53.84
70488;BME280;57976;48.174;16.370;2023-03-26T08:15:02;98593.56;;;13.32;53.12
70488;BME280;57976;48.174;16.370;2023-03-26T08:17:14;98586.84;;;13.35;52.75
70488;BME280;57976;48.174;16.370;2023-03-26T08:19:31;98579.77;;;13.37;52.73
70488;BME280;57976;48.174;16.370;2023-03-26T08:21:42;98582.02;;;13.41;52.28
70488;BME280;57976;48.174;16.370;2023-03-26T08:23:55;98576.15;;;13.46;52.37
70488;BME280;57976;48.174;16.370;2023-03-26T08:26:07;98577.70;;;13.55;52.49
70488;BME280;57976;48.174;16.370;2023-03-26T08:28:23;98583.77;;;13.66;51.77
70488;BME280;57976;48.174;16.370;2023-03-26T08:30:31;98574.48;;;13.76;51.43
70488;BME280;57976;48.174;16.370;2023-03-26T08:32:37;98571.80;;;13.75;51.23
70488;BME280;57976;48.174;16.370;2023-03-26T08:34:42;98573.77;;;13.69;51.53
70488;BME280;57976;48.174;16.370;2023-03-26T08:36:46;98582.59;;;13.69;51.36
70488;BME280;57976;48.174;16.370;2023-03-26T08:38:51;98576.59;;;13.68;50.84
70488;BME280;57976;48.174;16.370;2023-03-26T08:43:53;98569.11;;;13.70;51.24
70488;BME280;57976;48.174;16.370;2023-03-26T08:46:22;98555.07;;;13.71;50.70
70488;BME280;57976;48.174;16.370;2023-03-26T08:48:46;98555.45;;;13.78;50.76
70488;BME280;57976;48.174;16.370;2023-03-26T08:56:21;98538.54;;;13.96;50.01
70488;BME280;57976;48.174;16.370;2023-03-26T09:01:30;98524.98;;;14.09;49.63
70488;BME280;57976;48.174;16.370;2023-03-26T09:03:58;98523.62;;;14.20;49.77
70488;BME280;57976;48.174;16.370;2023-03-26T09:06:23;98519.59;;;14.28;48.89
70488;BME280;57976;48.174;16.370;2023-03-26T09:09:03;98508.73;;;14.36;48.57
70488;BME280;57976;48.174;16.370;2023-03-26T09:11:45;98502.27;;;14.40;48.60
70488;BME280;57976;48.174;16.370;2023-03-26T09:19:34;98494.46;;;14.65;47.71
70488;BME280;57976;48.174;16.370;2023-03-26T09:22:04;98487.86;;;14.60;47.46
70488;BME280;57976;48.174;16.370;2023-03-26T09:24:34;98479.91;;;14.58;48.18
70488;BME280;57976;48.174;16.370;2023-03-26T09:26:49;98473.81;;;14.64;47.97
70488;BME280;57976;48.174;16.370;2023-03-26T09:32:33;98467.37;;;14.79;47.37
70488;BME280;57976;48.174;16.370;2023-03-26T09:34:56;98465.36;;;14.85;47.60
70488;BME280;57976;48.174;16.370;2023-03-26T09:37:24;98455.41;;;14.92;47.45
70488;BME280;57976;48.174;16.370;2023-03-26T09:39:47;98449.16;;;14.99;47.29
70488;BME280;57976;48.174;16.370;2023-03-26T09:42:06;98450.06;;;15.07;47.39
70488;BME280;57976;48.174;16.370;2023-03-26T09:44:32;98448.45;;;15.16;46.49
70488;BME280;57976;48.174;16.370;2023-03-26T09:46:47;98445.40;;;15.18;45.81
70488;BME280;57976;48.174;16.370;2023-03-26T09:49:04;98436.38;;;15.16;45.91
70488;BME280;57976;48.174;16.370;2023-03-26T09:51:35;98439.70;;;15.26;44.99
70488;BME280;57976;48.174;16.370;2023-03-26T09:56:24;98426.05;;;15.48;45.10
70488;BME280;57976;48.174;16.370;2023-03-26T09:58:46;98416.59;;;15.59;44.69
70488;BME280;57976;48.174;16.370;2023-03-26T10:00:58;98411.23;;;15.73;44.44
70488;BME280;57976;48.174;16.370;2023-03-26T10:03:15;98406.45;;;15.86;43.72
70488;BME280;57976;48.174;16.370;2023-03-26T10:05:45;98401.64;;;15.96;42.96
70488;BME280;57976;48.174;16.370;2023-03-26T10:08:07;98388.52;;;16.11;43.25
70488;BME280;57976;48.174;16.370;2023-03-26T10:10:21;98384.23;;;16.28;42.97
70488;BME280;57976;48.174;16.370;2023-03-26T10:12:31;98377.20;;;16.34;42.48
70488;BME280;57976;48.174;16.370;2023-03-26T10:14:40;98373.86;;;16.39;41.97
70488;BME280;57976;48.174;16.370;2023-03-26T10:16:53;98368.27;;;16.39;41.61
70488;BME280;57976;48.174;16.370;2023-03-26T10:19:09;98361.98;;;16.49;41.81
70488;BME280;57976;48.174;16.370;2023-03-26T10:21:23;98354.48;;;16.65;40.97
70488;BME280;57976;48.174;16.370;2023-03-26T10:23:52;98351.02;;;16.79;41.35
70488;BME280;57976;48.174;16.370;2023-03-26T10:26:17;98343.42;;;16.92;40.71
70488;BME280;57976;48.174;16.370;2023-03-26T10:31:09;98331.23;;;17.02;40.01
70488;BME280;57976;48.174;16.370;2023-03-26T10:33:24;98322.48;;;17.07;40.00
70488;BME280;57976;48.174;16.370;2023-03-26T10:35:43;98319.84;;;17.14;39.98
70488;BME280;57976;48.174;16.370;2023-03-26T10:38:03;98311.45;;;17.26;39.51
70488;BME280;57976;48.174;16.370;2023-03-26T10:40:18;98305.64;;;17.37;39.39
70488;BME280;57976;48.174;16.370;2023-03-26T10:42:38;98301.71;;;17.44;39.09
70488;BME280;57976;48.174;16.370;2023-03-26T10:45:12;98294.13;;;17.52;38.87
70488;BME280;57976;48.174;16.370;2023-03-26T10:47:36;98287.50;;;17.58;38.87
70488;BME280;57976;48.174;16.370;2023-03-26T10:49:57;98291.70;;;17.65;38.94
70488;BME280;57976;48.174;16.370;2023-03-26T10:52:04;98288.30;;;17.72;38.58
70488;BME280;57976;48.174;16.370;2023-03-26T10:54:20;98282.58;;;17.77;38.53
70488;BME280;57976;48.174;16.370;2023-03-26T10:56:27;98279.86;;;17.83;38.43
70488;BME280;57976;48.174;16.370;2023-03-26T10:58:31;98279.09;;;17.92;38.13
70488;BME280;57976;48.174;16.370;2023-03-26T11:00:56;98273.91;;;17.97;37.55
70488;BME280;57976;48.174;16.370;2023-03-26T11:03:13;98269.48;;;17.98;38.29
70488;BME280;57976;48.174;16.370;2023-03-26T11:05:30;98263.86;;;18.01;38.45
70488;BME280;57976;48.174;16.370;2023-03-26T11:07:43;98258.08;;;18.05;37.80
70488;BME280;57976;48.174;16.370;2023-03-26T11:09:53;98250.36;;;18.10;37.99
70488;BME280;57976;48.174;16.370;2023-03-26T11:12:03;98245.20;;;18.19;37.40
70488;BME280;57976;48.174;16.370;2023-03-26T11:14:34;98239.39;;;18.19;36.96
70488;BME280;57976;48.174;16.370;2023-03-26T11:17:01;98234.61;;;18.24;37.92
70488;BME280;57976;48.174;16.370;2023-03-26T11:19:12;98233.11;;;18.32;37.84
70488;BME280;57976;48.174;16.370;2023-03-26T11:21:21;98228.88;;;18.39;37.16
70488;BME280;57976;48.174;16.370;2023-03-26T11:23:34;98211.85;;;18.34;36.06
70488;BME280;57976;48.174;16.370;2023-03-26T11:25:58;98212.95;;;18.31;36.53
70488;BME280;57976;48.174;16.370;2023-03-26T11:28:17;98202.93;;;18.38;36.28
70488;BME280;57976;48.174;16.370;2023-03-26T11:30:31;98194.65;;;18.50;36.04
70488;BME280;57976;48.174;16.370;2023-03-26T11:32:40;98190.88;;;18.59;36.30
70488;BME280;57976;48.174;16.370;2023-03-26T11:34:55;98182.52;;;18.65;36.14
70488;BME280;57976;48.174;16.370;2023-03-26T11:37:01;98176.39;;;18.68;36.48
70488;BME280;57976;48.174;16.370;2023-03-26T11:39:11;98181.30;;;18.77;35.99
70488;BME280;57976;48.174;16.370;2023-03-26T11:41:19;98184.99;;;18.80;36.15
70488;BME280;57976;48.174;16.370;2023-03-26T11:43:50;98183.88;;;18.91;35.92
70488;BME280;57976;48.174;16.370;2023-03-26T11:45:55;98178.16;;;18.98;35.77
70488;BME280;57976;48.174;16.370;2023-03-26T11:48:05;98171.23;;;18.87;34.58
70488;BME280;57976;48.174;16.370;2023-03-26T11:50:15;98167.60;;;18.80;34.90
70488;BME280;57976;48.174;16.370;2023-03-26T11:52:20;98164.41;;;18.68;34.93
70488;BME280;57976;48.174;16.370;2023-03-26T11:54:23;98156.86;;;18.60;35.18
70488;BME280;57976;48.174;16.370;2023-03-26T11:56:28;98152.52;;;18.58;34.94
70488;BME280;57976;48.174;16.370;2023-03-26T11:58:37;98152.19;;;18.65;34.95
70488;BME280;57976;48.174;16.370;2023-03-26T12:00:42;98147.65;;;18.65;34.60
70488;BME280;57976;48.174;16.370;2023-03-26T12:02:46;98142.95;;;18.61;34.71
70488;BME280;57976;48.174;16.370;2023-03-26T12:04:52;98141.20;;;18.56;34.69
70488;BME280;57976;48.174;16.370;2023-03-26T12:07:08;98139.59;;;18.56;34.78